2F6 weather

Skiatook Municipal Airport
Skiatook, Oklahoma, United States

Public forecast

Using degrees Fahrenheit for public forecast. Weather courtesy of forecast.io.

METAR (pilot weather report)

Closest report is Tulsa International Airport, 11.1 nm (20.6 km) SSE. Retrieved 2019/03/21 02:53 UTC (55 minutes ago):

KTUL 210253Z 23004KT 10SM CLR 13/01 A3016 RMK AO2 SLP212 T01280006 51005

TAF (pilot weather forecast)

Forecast is more than 12 hours old.

Closest forecast is Tulsa International Airport, 11.1 nm (20.6 km) SSE. Retrieved 2019/03/20 00:30 UTC (1 day ago):

TAF KTUL 202328Z 2100/2124 32009KT P6SM SKC FM210200 22004KT P6SM SKC FM211400 36008KT P6SM SKC